Weather History for Canadian, TX

Change the Weather History Date:

Monday, October 8, 2012

  Actual Average (KPPA) Record (KPPA)
Temperature  
Mean Temperature 49 °F -  
Max Temperature 68 °F 72 °F 95 °F (1979)
Min Temperature 30 °F 47 °F 30 °F (1970)
Degree Days  
Heating Degree Days 16    
Moisture  
Dew Point 34 °F    
Average Humidity 61    
Maximum Humidity 100    
Minimum Humidity 28    
Precipitation  
Precipitation 0.00 in - - ()
Sea Level Pressure  
Sea Level Pressure 30.06 in    
Wind  
Wind Speed 7 mph (SSW)    
Max Wind Speed 22 mph    
Max Gust Speed 32 mph    
Visibility 10 miles    
Events      
Averages and records for this station are not official NWS values.
T = Trace of Precipitation, MM = Missing Value Source: NWS Daily Summary

Daily Weather History Graph

Daily Weather History Graph

Search for Another Location

Airport:

Trip Planner

Search our weather history database for the weather conditions in past years. The results will help you decide how hot, cold, wet, or windy it might be!

Date:

Astronomy

Oct. 08, 2012 Rise Set
Actual Time 7:42 AM CDT 7:14 PM CDT
Civil Twilight 7:17 AM CDT 7:40 PM CDT
Nautical Twilight 6:47 AM CDT 8:09 PM CDT
Astronomical Twilight 6:17 AM CDT 8:39 PM CDT
Moon 12:36 AM CDT (10/8) 2:53 PM CDT (10/8)
Length of Visible Light 12h 23m
Length of Day
11h 31m
Last Quarter, 46% of the Moon is Illuminated
Oct 8
Last Quarter
Oct 15
New
Oct 21
First Quarter
Oct 29
Full
Nov 6
Last Quarter

Hourly Weather History & Observations

Time (CDT) Temp. Windchill Dew Point Humidity Pressure Visibility Wind Dir Wind Speed Gust Speed Precip Events Conditions
12:15 AM 33.8 °F 29.6 °F 32.0 °F 93% 30.19 in 10.0 mi WSW 4.6 mph - N/A   Clear
12:35 AM 33.8 °F 28.6 °F 32.0 °F 93% 30.19 in 10.0 mi SW 5.8 mph - N/A   Clear
12:55 AM 35.6 °F 29.9 °F 32.0 °F 87% 30.19 in 10.0 mi SW 6.9 mph - N/A   Clear
1:15 AM 35.6 °F 29.9 °F 32.0 °F 87% 30.19 in 10.0 mi SW 6.9 mph - N/A   Clear
1:35 AM 35.6 °F 30.7 °F 32.0 °F 87% 30.19 in 10.0 mi SW 5.8 mph - N/A   Clear
1:55 AM 35.6 °F 32.8 °F 32.0 °F 87% 30.19 in 10.0 mi WSW 3.5 mph - N/A   Clear
2:15 AM 33.8 °F 30.8 °F 32.0 °F 93% 30.19 in 10.0 mi WSW 3.5 mph - N/A   Clear
2:35 AM 35.6 °F 32.8 °F 32.0 °F 87% 30.19 in 10.0 mi WSW 3.5 mph - N/A   Clear
2:55 AM 33.8 °F - 32.0 °F 93% 30.18 in 10.0 mi Calm Calm - N/A   Clear
3:15 AM 33.8 °F - 32.0 °F 93% 30.17 in 10.0 mi Calm Calm - N/A   Clear
3:35 AM 35.6 °F - 32.0 °F 87% 30.16 in 10.0 mi Calm Calm - N/A   Clear
3:55 AM 33.8 °F - 30.2 °F 87% 30.16 in 10.0 mi Calm Calm - N/A   Clear
4:15 AM 33.8 °F - 32.0 °F 93% 30.15 in 10.0 mi Calm Calm - N/A   Clear
4:35 AM 32.0 °F - 30.2 °F 93% 30.15 in 10.0 mi Calm Calm - N/A   Clear
4:55 AM 32.0 °F - 30.2 °F 93% 30.15 in 10.0 mi Calm Calm - N/A   Clear
5:15 AM 33.8 °F - 32.0 °F 93% 30.14 in 10.0 mi Calm Calm - N/A   Clear
5:35 AM 32.0 °F 28.7 °F 30.2 °F 93% 30.14 in 10.0 mi South 3.5 mph - N/A   Clear
5:55 AM 32.0 °F 27.5 °F 30.2 °F 93% 30.13 in 10.0 mi South 4.6 mph - N/A   Clear
6:15 AM 30.2 °F - 28.4 °F 93% 30.14 in 10.0 mi Calm Calm - N/A   Clear
6:35 AM 32.0 °F - 30.2 °F 93% 30.13 in 10.0 mi Calm Calm - N/A   Clear
6:55 AM 32.0 °F - 30.2 °F 93% 30.13 in 10.0 mi Calm Calm - N/A   Clear
7:15 AM 32.0 °F - 28.4 °F 87% 30.13 in 10.0 mi Calm Calm - N/A   Clear
7:35 AM 32.0 °F 28.7 °F 30.2 °F 93% 30.13 in 10.0 mi South 3.5 mph - N/A   Clear
7:55 AM 32.0 °F - 30.2 °F 93% 30.13 in 10.0 mi Calm Calm - N/A   Clear
8:15 AM 30.2 °F - 28.4 °F 93% 30.13 in 10.0 mi Calm Calm - N/A   Clear
8:35 AM 32.0 °F - 32.0 °F 100% 30.13 in 10.0 mi Calm Calm - N/A   Clear
8:55 AM 33.8 °F - 32.0 °F 93% 30.13 in 10.0 mi Calm Calm - N/A   Clear
9:15 AM 37.4 °F - 33.8 °F 87% 30.13 in 10.0 mi Calm Calm - N/A   Clear
9:35 AM 44.6 °F 40.2 °F 33.8 °F 66% 30.13 in 10.0 mi SW 8.1 mph - N/A   Clear
9:55 AM 46.4 °F 41.5 °F 33.8 °F 62% 30.13 in 10.0 mi SW 10.4 mph - N/A   Clear
10:15 AM 50.0 °F - 33.8 °F 54% 30.13 in 10.0 mi SW 9.2 mph - N/A   Clear
10:35 AM 53.6 °F - 35.6 °F 51% 30.12 in 10.0 mi WSW 4.6 mph - N/A   Clear
10:55 AM 57.2 °F - 35.6 °F 44% 30.11 in 10.0 mi WSW 9.2 mph - N/A   Clear
11:15 AM 59.0 °F - 35.6 °F 42% 30.10 in 10.0 mi SW 10.4 mph 17.3 mph N/A   Clear
11:35 AM 60.8 °F - 35.6 °F 39% 30.09 in 10.0 mi SSW 10.4 mph - N/A   Clear
11:55 AM 62.6 °F - 35.6 °F 37% 30.08 in 10.0 mi WSW 10.4 mph - N/A   Clear
12:15 PM 62.6 °F - 35.6 °F 37% 30.07 in 10.0 mi SW 12.7 mph 21.9 mph N/A   Clear
12:55 PM 64.4 °F - 33.8 °F 32% 30.05 in 10.0 mi SW 16.1 mph 21.9 mph N/A   Clear
1:15 PM 64.4 °F - 35.6 °F 34% 30.04 in 10.0 mi SW 18.4 mph 23.0 mph N/A   Clear
1:35 PM 64.4 °F - 33.8 °F 32% 30.03 in 10.0 mi SSW 17.3 mph 25.3 mph N/A   Clear
1:55 PM 64.4 °F - 33.8 °F 32% 30.02 in 10.0 mi SSW 18.4 mph 26.5 mph N/A   Clear
2:15 PM 66.2 °F - 33.8 °F 30% 30.01 in 10.0 mi South 18.4 mph 25.3 mph N/A   Clear
2:35 PM 64.4 °F - 32.0 °F 30% 29.99 in 10.0 mi SSW 13.8 mph 25.3 mph N/A   Clear
2:55 PM 68.0 °F - 33.8 °F 28% 29.98 in 10.0 mi SSW 19.6 mph 24.2 mph N/A   Clear
3:15 PM 66.2 °F - 33.8 °F 30% 29.98 in 10.0 mi SSW 18.4 mph 24.2 mph N/A   Clear
3:35 PM 64.4 °F - 33.8 °F 32% 29.97 in 10.0 mi SSW 16.1 mph 26.5 mph N/A   Clear
3:55 PM 64.4 °F - 33.8 °F 32% 29.97 in 10.0 mi SSW 18.4 mph 25.3 mph N/A   Clear
4:15 PM 66.2 °F - 35.6 °F 32% 29.96 in 10.0 mi SW 19.6 mph 25.3 mph N/A   Clear
4:35 PM 66.2 °F - 35.6 °F 32% 29.95 in 10.0 mi South 18.4 mph 25.3 mph N/A   Clear
4:55 PM 64.4 °F - 35.6 °F 34% 29.94 in 10.0 mi South 16.1 mph 21.9 mph N/A   Clear
5:15 PM 64.4 °F - 35.6 °F 34% 29.94 in 10.0 mi SSW 15.0 mph 20.7 mph N/A   Clear
5:35 PM 66.2 °F - 35.6 °F 32% 29.94 in 10.0 mi SSW 16.1 mph 21.9 mph N/A   Clear
5:55 PM 64.4 °F - 35.6 °F 34% 29.94 in 10.0 mi South 12.7 mph 21.9 mph N/A   Clear
6:15 PM 64.4 °F - 35.6 °F 34% 29.94 in 10.0 mi South 12.7 mph - N/A   Clear
6:35 PM 62.6 °F - 35.6 °F 37% 29.93 in 10.0 mi South 11.5 mph - N/A   Clear
6:55 PM 62.6 °F - 35.6 °F 37% 29.92 in 10.0 mi South 10.4 mph 16.1 mph N/A   Clear
7:35 PM 59.0 °F - 35.6 °F 42% 29.93 in 10.0 mi Calm Calm - N/A   Clear
7:55 PM 59.0 °F - 35.6 °F 42% 29.93 in 10.0 mi SSE 9.2 mph - N/A   Clear
8:15 PM 57.2 °F - 35.6 °F 44% 29.92 in 10.0 mi SSE 8.1 mph - N/A   Clear
8:35 PM 57.2 °F - 35.6 °F 44% 29.94 in 10.0 mi South 8.1 mph 17.3 mph N/A   Clear
8:55 PM 55.4 °F - 35.6 °F 47% 29.93 in 10.0 mi South 9.2 mph - N/A   Clear
9:15 PM 55.4 °F - 35.6 °F 47% 29.94 in 10.0 mi South 8.1 mph - N/A   Clear
9:35 PM 55.4 °F - 35.6 °F 47% 29.94 in 10.0 mi SSW 11.5 mph - N/A   Clear
9:55 PM 55.4 °F - 35.6 °F 47% 29.94 in 10.0 mi SSW 9.2 mph - N/A   Clear
10:15 PM 55.4 °F - 37.4 °F 51% 29.93 in 10.0 mi South 12.7 mph 18.4 mph N/A   Clear
10:55 PM 55.4 °F - 37.4 °F 51% 29.92 in 10.0 mi South 16.1 mph 27.6 mph N/A   Clear
11:15 PM 55.4 °F - 37.4 °F 51% 29.92 in 10.0 mi South 21.9 mph 32.2 mph N/A   Clear
11:35 PM 53.6 °F - 37.4 °F 54% 29.92 in 10.0 mi South 18.4 mph 26.5 mph N/A   Clear